Time;durP1;ratioP1;P1;durP2;ratioP2;P2;SDS_P1;SDS_P2;PMS_P1;PMS_P2;Temp;Humidity;BMP_temperature;BMP_pressure;BME280_temperature;BME280_humidity;BME280_pressure;Samples;Min_cycle;Max_cycle;Signal;HPM_P1;HPM_P2
2023/05/02 00:00:44;;;;;;;0.73;0.50;;;9.70;99.90;;;;;;5050284;28;20221;-83
2023/05/02 00:03:10;;;;;;;0.50;0.50;;;9.70;99.90;;;;;;5049081;28;20178;-81
2023/05/02 00:05:36;;;;;;;0.80;0.80;;;9.70;99.90;;;;;;5033075;28;20542;-83
2023/05/02 00:08:02;;;;;;;0.37;0.37;;;9.80;99.90;;;;;;5032482;28;20292;-81
2023/05/02 00:10:28;;;;;;;0.63;0.63;;;9.90;99.90;;;;;;5048551;28;20239;-83
2023/05/02 00:12:54;;;;;;;3.13;0.77;;;10.00;99.90;;;;;;5048789;28;20222;-83
2023/05/02 00:15:20;;;;;;;2.10;1.03;;;10.00;99.90;;;;;;5007442;28;1169867;-81
2023/05/02 00:17:46;;;;;;;0.53;0.53;;;10.10;99.90;;;;;;5051545;28;20206;-84
2023/05/02 00:20:12;;;;;;;1.83;0.93;;;10.00;99.90;;;;;;5049892;28;20225;-83
2023/05/02 00:22:38;;;;;;;0.57;0.57;;;10.10;99.90;;;;;;5050742;28;20218;-82
2023/05/02 00:25:04;;;;;;;13.80;1.80;;;9.90;99.90;;;;;;5050810;28;20210;-84
2023/05/02 00:27:33;;;;;;;0.43;0.43;;;9.90;99.90;;;;;;5048992;28;20225;-81
2023/05/02 00:29:59;;;;;;;6.13;1.33;;;9.70;99.90;;;;;;5049165;28;20205;-83
2023/05/02 00:32:26;;;;;;;3.43;0.80;;;9.70;99.90;;;;;;5048887;28;20218;-83
2023/05/02 00:34:52;;;;;;;1.90;1.20;;;9.60;99.90;;;;;;5050597;28;20263;-82
2023/05/02 00:37:17;;;;;;;9.97;3.60;;;9.60;99.90;;;;;;5050545;28;20229;-82
2023/05/02 00:39:43;;;;;;;2.33;2.13;;;9.60;99.90;;;;;;5048922;28;20214;-81
2023/05/02 00:42:09;;;;;;;2.33;1.47;;;9.60;99.90;;;;;;5050181;28;20185;-81
2023/05/02 00:44:35;;;;;;;1.63;0.90;;;9.50;99.90;;;;;;5032937;28;20181;-81
2023/05/02 00:47:01;;;;;;;1.10;1.00;;;9.50;99.90;;;;;;5050245;28;20221;-82
2023/05/02 00:49:27;;;;;;;1.17;0.70;;;9.40;99.90;;;;;;5048931;28;20222;-81
2023/05/02 00:51:55;;;;;;;8.30;1.90;;;9.40;99.90;;;;;;5048644;28;20225;-81
2023/05/02 00:54:20;;;;;;;9.43;1.43;;;9.40;99.90;;;;;;5048939;28;20843;-83
2023/05/02 00:56:46;;;;;;;3.37;2.43;;;9.40;99.90;;;;;;5049545;28;20264;-82
2023/05/02 00:59:13;;;;;;;1.17;1.10;;;9.40;99.90;;;;;;5048828;28;20675;-81
2023/05/02 01:02:21;;;;;;;1.43;1.07;;;9.30;99.90;;;;;;5032303;28;20300;-81
2023/05/02 01:05:18;;;;;;;1.47;1.37;;;9.20;99.90;;;;;;5040128;28;20218;-81
2023/05/02 01:08:09;;;;;;;1.50;0.80;;;9.10;99.90;;;;;;5048463;28;20316;-83
2023/05/02 01:10:47;;;;;;;1.20;0.93;;;9.10;99.90;;;;;;5048327;28;20233;-83
2023/05/02 01:13:27;;;;;;;0.73;0.73;;;9.20;99.90;;;;;;5047305;28;20221;-83
2023/05/02 01:15:57;;;;;;;1.10;1.10;;;9.10;99.90;;;;;;5047351;28;20240;-82
2023/05/02 01:18:25;;;;;;;2.60;1.43;;;9.00;99.90;;;;;;5048500;28;20247;-81
2023/05/02 01:20:58;;;;;;;1.77;1.60;;;9.00;99.90;;;;;;5047640;28;20376;-83
2023/05/02 01:23:44;;;;;;;12.47;1.33;;;9.00;99.90;;;;;;5048043;28;20242;-82
2023/05/02 01:26:22;;;;;;;1.73;1.23;;;9.00;99.90;;;;;;5047095;28;20214;-82
2023/05/02 01:29:00;;;;;;;10.90;1.03;;;9.00;99.90;;;;;;5048413;28;20213;-82
2023/05/02 01:31:30;;;;;;;6.53;1.90;;;9.00;99.90;;;;;;5048226;28;20739;-83
2023/05/02 01:33:57;;;;;;;3.53;2.77;;;9.00;99.90;;;;;;5047001;28;20222;-84
2023/05/02 01:36:29;;;;;;;10.33;1.67;;;9.00;99.90;;;;;;5047290;28;20530;-81
2023/05/02 01:38:56;;;;;;;0.60;0.60;;;8.90;99.90;;;;;;5047581;28;20180;-83
2023/05/02 01:41:26;;;;;;;7.30;1.77;;;8.80;99.90;;;;;;5046913;28;20221;-83
2023/05/02 01:43:58;;;;;;;3.43;1.50;;;8.80;99.90;;;;;;5048212;28;20222;-82
2023/05/02 01:46:31;;;;;;;1.53;1.43;;;8.80;99.90;;;;;;5047916;28;20209;-83
2023/05/02 01:49:00;;;;;;;3.93;2.13;;;8.80;99.90;;;;;;5046586;28;20213;-82
2023/05/02 01:51:30;;;;;;;0.67;0.67;;;8.80;99.90;;;;;;5047465;28;20236;-81
2023/05/02 01:54:00;;;;;;;0.83;0.83;;;8.80;99.90;;;;;;5048123;28;20187;-82
2023/05/02 01:56:28;;;;;;;0.60;0.60;;;8.70;99.90;;;;;;5047622;28;20734;-82
2023/05/02 01:58:59;;;;;;;7.47;1.60;;;8.70;99.90;;;;;;5047840;28;20217;-82
2023/05/02 02:01:27;;;;;;;2.10;1.33;;;8.60;99.90;;;;;;5046674;28;20303;-81
2023/05/02 02:03:59;;;;;;;6.73;2.20;;;8.60;99.90;;;;;;5046451;28;20217;-83
2023/05/02 02:06:26;;;;;;;2.77;2.53;;;8.70;99.90;;;;;;5046816;28;20215;-81
2023/05/02 02:08:53;;;;;;;1.67;0.93;;;8.60;99.90;;;;;;5046792;28;20178;-82
2023/05/02 02:11:55;;;;;;;1.47;1.47;;;8.60;99.90;;;;;;5047035;28;20332;-82
2023/05/02 02:14:25;;;;;;;4.67;2.20;;;8.60;99.90;;;;;;5036067;28;20619;-83
2023/05/02 02:16:54;;;;;;;1.50;0.50;;;8.70;99.90;;;;;;5048620;28;20802;-83
2023/05/02 02:19:21;;;;;;;1.80;0.77;;;8.70;99.90;;;;;;5048325;28;20562;-81
2023/05/02 02:21:49;;;;;;;1.23;1.03;;;8.70;99.90;;;;;;5048009;28;20218;-83
2023/05/02 02:24:19;;;;;;;0.60;0.60;;;8.60;99.90;;;;;;5049196;28;20218;-83
2023/05/02 02:26:45;;;;;;;1.23;0.87;;;8.50;99.90;;;;;;5049750;28;20794;-83
2023/05/02 02:29:11;;;;;;;3.87;1.13;;;8.40;99.90;;;;;;5047637;28;20272;-83
2023/05/02 02:31:38;;;;;;;10.13;1.20;;;8.40;99.90;;;;;;5047871;28;20340;-81
2023/05/02 02:34:04;;;;;;;2.13;1.40;;;8.40;99.90;;;;;;5048005;28;20214;-83
2023/05/02 02:36:38;;;;;;;5.10;0.63;;;8.30;99.90;;;;;;5049041;28;20228;-84
2023/05/02 02:39:04;;;;;;;2.10;2.00;;;8.40;99.90;;;;;;5048785;28;20162;-83
2023/05/02 02:41:41;;;;;;;4.47;1.07;;;8.40;99.90;;;;;;5048672;28;20233;-84
2023/05/02 02:44:21;;;;;;;1.50;1.40;;;8.40;99.90;;;;;;5048697;28;20214;-82
2023/05/02 02:47:11;;;;;;;6.23;1.43;;;8.50;99.90;;;;;;5048906;28;20692;-82
2023/05/02 02:49:56;;;;;;;1.00;1.00;;;8.40;99.90;;;;;;5049012;28;20218;-83
2023/05/02 02:52:24;;;;;;;6.97;0.73;;;8.40;99.90;;;;;;5047939;28;20733;-83
2023/05/02 02:55:05;;;;;;;4.63;2.33;;;8.30;99.90;;;;;;5052427;28;20214;-82
2023/05/02 02:57:46;;;;;;;6.77;1.53;;;8.40;99.90;;;;;;5051821;28;21059;-83
2023/05/02 03:00:19;;;;;;;1.37;1.27;;;8.40;99.90;;;;;;5051533;28;20174;-81
2023/05/02 03:02:47;;;;;;;2.17;1.57;;;8.40;99.90;;;;;;5052852;28;20192;-83
2023/05/02 03:05:13;;;;;;;1.70;0.70;;;8.50;99.90;;;;;;5051105;28;20801;-81
2023/05/02 03:07:40;;;;;;;2.00;1.90;;;8.50;99.90;;;;;;5050870;28;20213;-82
2023/05/02 03:10:07;;;;;;;0.87;0.87;;;8.50;99.90;;;;;;5050279;28;20682;-82
2023/05/02 03:12:33;;;;;;;6.00;1.13;;;8.50;99.90;;;;;;5051006;28;20225;-82
2023/05/02 03:15:30;;;;;;;0.60;0.60;;;8.40;99.90;;;;;;5051185;28;20190;-81
2023/05/02 03:17:56;;;;;;;1.37;1.00;;;8.40;99.90;;;;;;5047457;28;20283;-82
2023/05/02 03:20:22;;;;;;;0.63;0.43;;;8.40;99.90;;;;;;5034121;28;20775;-82
2023/05/02 03:22:48;;;;;;;0.80;0.77;;;8.40;99.90;;;;;;5051639;28;20220;-83
2023/05/02 03:25:14;;;;;;;0.83;0.83;;;8.40;99.90;;;;;;5050244;28;20301;-82
2023/05/02 03:27:40;;;;;;;0.40;0.40;;;8.40;99.90;;;;;;5050181;28;20209;-80
2023/05/02 03:30:08;;;;;;;0.50;0.50;;;8.30;99.90;;;;;;5049189;28;20650;-81
2023/05/02 03:32:34;;;;;;;1.57;1.30;;;8.30;99.90;;;;;;5050970;28;20178;-81
2023/05/02 03:35:00;;;;;;;0.73;0.63;;;8.30;99.90;;;;;;5051086;28;20225;-82
2023/05/02 03:37:26;;;;;;;1.00;0.97;;;8.20;99.90;;;;;;5050308;28;20301;-81
2023/05/02 03:39:51;;;;;;;0.40;0.40;;;8.10;99.90;;;;;;5051489;28;20240;-82
2023/05/02 03:42:17;;;;;;;1.07;1.07;;;8.00;99.90;;;;;;5051287;28;20189;-82
2023/05/02 03:44:43;;;;;;;0.53;0.53;;;8.00;99.90;;;;;;5051571;28;20187;-82
2023/05/02 03:47:08;;;;;;;0.77;0.50;;;7.90;99.90;;;;;;5033609;28;20589;-81
2023/05/02 03:49:35;;;;;;;0.97;0.93;;;8.00;99.90;;;;;;5033590;28;20241;-83
2023/05/02 03:52:00;;;;;;;0.80;0.80;;;8.00;99.90;;;;;;5051287;28;20309;-80
2023/05/02 03:54:26;;;;;;;0.20;0.20;;;7.90;99.90;;;;;;5050006;28;20890;-82
2023/05/02 03:56:55;;;;;;;1.03;0.93;;;7.90;99.90;;;;;;5050183;28;20178;-82
2023/05/02 03:59:21;;;;;;;0.40;0.33;;;7.90;99.90;;;;;;5050218;28;20237;-81
2023/05/02 04:01:50;;;;;;;0.40;0.40;;;7.90;99.90;;;;;;5033253;28;20683;-81
2023/05/02 04:04:15;;;;;;;0.80;0.80;;;7.90;99.90;;;;;;5050141;28;20222;-82
2023/05/02 04:06:41;;;;;;;0.10;0.10;;;7.90;99.90;;;;;;5049326;28;20698;-82
2023/05/02 04:09:07;;;;;;;0.20;0.20;;;8.00;99.90;;;;;;5051410;28;20185;-83
2023/05/02 04:11:33;;;;;;;0.23;0.23;;;8.00;99.90;;;;;;5051780;28;20647;-82
2023/05/02 04:13:58;;;;;;;0.20;0.20;;;8.00;99.90;;;;;;5049633;28;20726;-84
2023/05/02 04:16:24;;;;;;;0.47;0.47;;;8.00;99.90;;;;;;5051237;28;20238;-83
2023/05/02 04:18:50;;;;;;;1.20;1.10;;;8.00;99.90;;;;;;5033537;28;20226;-82
2023/05/02 04:21:16;;;;;;;0.30;0.30;;;8.00;99.90;;;;;;5050941;28;20706;-83
2023/05/02 04:23:42;;;;;;;0.40;0.40;;;8.00;99.90;;;;;;5051448;28;20208;-85
2023/05/02 04:26:07;;;;;;;1.50;0.93;;;8.00;99.90;;;;;;5049872;28;20671;-83
2023/05/02 04:28:34;;;;;;;0.70;0.70;;;8.00;99.90;;;;;;5049499;28;20249;-82
2023/05/02 04:31:02;;;;;;;0.87;0.60;;;7.90;99.90;;;;;;5049592;28;20679;-83
2023/05/02 04:33:27;;;;;;;0.60;0.60;;;7.90;99.90;;;;;;5033241;28;20381;-83
2023/05/02 04:35:53;;;;;;;0.50;0.50;;;7.90;99.90;;;;;;5049998;28;20202;-83
2023/05/02 04:38:19;;;;;;;0.70;0.70;;;8.00;99.90;;;;;;5050647;28;20225;-83
2023/05/02 04:40:45;;;;;;;3.40;0.43;;;7.90;99.90;;;;;;5032838;28;20301;-83
2023/05/02 04:43:10;;;;;;;0.60;0.60;;;7.90;99.90;;;;;;5049056;28;20688;-83
2023/05/02 04:45:36;;;;;;;1.43;0.70;;;7.90;99.90;;;;;;5048857;28;20214;-83
2023/05/02 04:48:03;;;;;;;0.47;0.47;;;7.90;99.90;;;;;;5033175;28;20182;-83
2023/05/02 04:50:29;;;;;;;0.20;0.20;;;7.90;99.90;;;;;;5050397;28;20580;-83
2023/05/02 05:40:33;;;;;;;0.30;0.30;;;8.10;99.90;;;;;;4955162;28;20244;-93
2023/05/02 05:42:58;;;;;;;1.00;1.00;;;8.10;99.90;;;;;;4953012;29;20229;-90
2023/05/02 05:45:24;;;;;;;0.63;0.63;;;8.10;99.90;;;;;;4932338;28;20197;-91
2023/05/02 05:47:52;;;;;;;0.60;0.50;;;8.20;99.90;;;;;;4916562;29;20193;-88
2023/05/02 05:50:18;;;;;;;1.70;1.37;;;8.10;99.90;;;;;;4927550;29;20591;-90
2023/05/02 05:52:44;;;;;;;0.30;0.30;;;8.20;99.90;;;;;;4931199;29;20217;-88
2023/05/02 05:55:10;;;;;;;0.40;0.40;;;9.10;99.90;;;;;;4948226;29;20217;-91
2023/05/02 05:57:35;;;;;;;0.43;0.43;;;9.50;99.90;;;;;;4932964;28;20182;-90
2023/05/02 06:00:01;;;;;;;0.40;0.40;;;8.90;99.90;;;;;;4931114;29;20250;-91
2023/05/02 06:02:27;;;;;;;1.80;0.47;;;8.60;99.90;;;;;;4933528;29;20213;-88
2023/05/02 06:04:53;;;;;;;1.07;0.93;;;8.50;99.90;;;;;;4948335;29;20227;-89
2023/05/02 06:07:19;;;;;;;0.60;0.60;;;8.50;99.90;;;;;;4932625;29;20213;-89
2023/05/02 06:09:45;;;;;;;0.93;0.93;;;8.50;99.90;;;;;;4947358;29;20181;-88
2023/05/02 06:12:11;;;;;;;1.40;1.40;;;8.30;99.90;;;;;;4918051;29;20241;-88
2023/05/02 06:14:36;;;;;;;0.90;0.90;;;8.30;99.90;;;;;;4932035;29;20300;-88
2023/05/02 06:17:02;;;;;;;1.67;1.57;;;8.20;99.90;;;;;;4931032;29;20216;-90
2023/05/02 06:19:28;;;;;;;2.97;1.27;;;8.20;99.90;;;;;;4932978;29;20228;-91
2023/05/02 06:21:54;;;;;;;2.03;1.73;;;8.30;99.90;;;;;;4948192;28;20185;-87
2023/05/02 06:24:19;;;;;;;2.23;1.10;;;8.40;99.90;;;;;;4932889;29;20541;-88
2023/05/02 06:26:45;;;;;;;5.63;0.77;;;8.50;99.90;;;;;;4940919;29;20217;-87
2023/05/02 06:29:12;;;;;;;0.67;0.67;;;8.50;99.90;;;;;;4949890;28;20276;-89
2023/05/02 06:31:38;;;;;;;0.67;0.57;;;8.50;99.90;;;;;;4950956;28;20229;-90
2023/05/02 06:34:04;;;;;;;1.00;1.00;;;8.50;99.90;;;;;;4935425;29;20225;-90
2023/05/02 06:36:30;;;;;;;0.40;0.40;;;8.50;99.90;;;;;;4934665;29;20201;-91
2023/05/02 06:38:56;;;;;;;1.80;0.80;;;8.90;99.90;;;;;;4950868;28;20252;-88
2023/05/02 06:41:22;;;;;;;1.97;0.77;;;10.80;99.90;;;;;;4918356;29;20253;-91
2023/05/02 06:43:48;;;;;;;0.63;0.63;;;12.00;99.90;;;;;;4933530;29;20213;-88
2023/05/02 06:46:14;;;;;;;1.07;0.70;;;11.80;99.90;;;;;;4934127;29;20221;-88
2023/05/02 06:48:39;;;;;;;0.60;0.47;;;11.30;99.90;;;;;;4949527;28;20587;-88
2023/05/02 06:51:05;;;;;;;4.17;1.40;;;11.20;99.90;;;;;;4934956;29;20224;-87
2023/05/02 06:53:33;;;;;;;0.80;0.80;;;10.90;99.90;;;;;;4932040;29;20213;-88
2023/05/02 06:55:58;;;;;;;1.17;1.07;;;11.00;99.90;;;;;;4928159;29;20329;-91
2023/05/02 06:58:24;;;;;;;1.77;0.97;;;10.30;99.90;;;;;;4937971;29;20681;-88
2023/05/02 07:00:50;;;;;;;6.37;1.13;;;10.00;99.90;;;;;;4931981;28;20811;-89
2023/05/02 07:03:16;;;;;;;2.27;1.77;;;9.50;99.90;;;;;;4954782;29;20209;-90
2023/05/02 07:05:42;;;;;;;2.17;1.70;;;9.50;99.90;;;;;;4955136;29;20272;-87
2023/05/02 07:08:08;;;;;;;4.53;0.40;;;9.20;99.90;;;;;;4939359;29;20217;-89
2023/05/02 07:10:34;;;;;;;4.73;0.40;;;8.80;99.90;;;;;;4939239;29;20229;-88
2023/05/02 07:12:59;;;;;;;1.37;1.30;;;8.70;99.90;;;;;;4939232;29;20240;-90
2023/05/02 07:15:26;;;;;;;1.23;0.80;;;8.70;99.90;;;;;;4924311;29;20194;-89
2023/05/02 07:17:52;;;;;;;1.43;1.00;;;8.70;99.90;;;;;;4939278;29;20217;-89
2023/05/02 07:20:18;;;;;;;2.23;1.30;;;8.90;99.90;;;;;;4954358;28;20240;-90
2023/05/02 07:22:44;;;;;;;0.73;0.50;;;8.90;99.90;;;;;;4939538;29;20218;-89
2023/05/02 07:25:10;;;;;;;0.63;0.40;;;9.00;99.90;;;;;;4939709;29;20280;-90
2023/05/02 07:27:36;;;;;;;1.23;0.70;;;8.90;99.90;;;;;;4939469;28;20196;-90
2023/05/02 07:30:02;;;;;;;0.60;0.60;;;8.80;99.90;;;;;;4955657;29;20194;-90
2023/05/02 07:32:30;;;;;;;0.60;0.60;;;9.00;99.90;;;;;;4939128;29;20225;-92
2023/05/02 07:34:55;;;;;;;0.33;0.33;;;9.00;99.90;;;;;;4939957;29;20591;-89
2023/05/02 07:37:22;;;;;;;3.07;0.53;;;9.00;99.90;;;;;;4938778;29;20315;-89
2023/05/02 07:39:50;;;;;;;0.20;0.20;;;9.10;99.90;;;;;;4954669;28;20237;-89
2023/05/02 07:42:16;;;;;;;0.40;0.40;;;9.00;99.90;;;;;;4940052;29;20196;-88
2023/05/02 07:44:42;;;;;;;1.17;0.67;;;8.90;99.90;;;;;;4954612;29;20221;-90
2023/05/02 07:47:08;;;;;;;0.20;0.20;;;9.00;99.90;;;;;;4938574;29;20213;-88
2023/05/02 07:49:35;;;;;;;0.43;0.40;;;8.90;99.90;;;;;;4946710;29;20220;-89
2023/05/02 07:52:01;;;;;;;0.10;0.10;;;8.80;99.90;;;;;;4938543;29;20229;-89
2023/05/02 07:54:27;;;;;;;0.20;0.20;;;9.00;99.90;;;;;;4939054;29;20192;-88
2023/05/02 07:56:53;;;;;;;0.23;0.23;;;9.20;99.90;;;;;;4938201;29;20217;-89
2023/05/02 07:59:19;;;;;;;0.20;0.20;;;9.20;99.90;;;;;;4938471;29;20275;-89
2023/05/02 08:01:45;;;;;;;0.27;0.27;;;9.30;99.90;;;;;;4938552;29;20697;-88
2023/05/02 08:04:11;;;;;;;0.33;0.33;;;9.40;99.90;;;;;;4938878;29;20225;-88
2023/05/02 08:06:37;;;;;;;0.40;0.40;;;9.50;99.90;;;;;;4954399;28;20190;-88
2023/05/02 08:09:03;;;;;;;1.13;0.73;;;9.50;99.90;;;;;;4939050;29;20185;-89
2023/05/02 08:11:29;;;;;;;0.83;0.40;;;9.50;99.90;;;;;;4937614;29;20217;-88
2023/05/02 08:13:55;;;;;;;5.50;0.80;;;9.70;99.90;;;;;;4937998;29;20218;-89
2023/05/02 08:16:21;;;;;;;4.83;0.97;;;9.70;99.90;;;;;;4953480;29;20221;-88
2023/05/02 08:18:46;;;;;;;3.63;0.83;;;9.50;99.90;;;;;;4953562;28;20213;-89
2023/05/02 08:21:12;;;;;;;0.93;0.70;;;9.50;99.90;;;;;;4938717;29;20220;-89
2023/05/02 08:23:40;;;;;;;1.03;0.80;;;9.70;99.90;;;;;;4953431;29;20220;-88
2023/05/02 08:26:06;;;;;;;2.57;1.07;;;9.90;99.90;;;;;;4953671;29;21062;-89
2023/05/02 08:28:32;;;;;;;7.83;0.60;;;9.80;99.90;;;;;;4938122;29;20315;-88
2023/05/02 08:30:58;;;;;;;0.70;0.50;;;9.90;99.90;;;;;;4937620;28;20295;-92
2023/05/02 08:33:24;;;;;;;0.73;0.73;;;9.90;99.90;;;;;;4938682;29;20276;-89
2023/05/02 08:35:50;;;;;;;1.40;1.40;;;9.60;99.90;;;;;;4937550;29;20647;-89
2023/05/02 08:38:16;;;;;;;0.40;0.40;;;9.60;99.90;;;;;;4937562;29;20268;-88
2023/05/02 08:40:42;;;;;;;0.60;0.60;;;9.50;99.90;;;;;;4937402;29;20249;-92
2023/05/02 08:43:09;;;;;;;0.30;0.30;;;9.50;99.90;;;;;;4938617;29;20217;-90
2023/05/02 08:45:39;;;;;;;2.53;0.53;;;9.90;99.90;;;;;;4938873;29;20197;-90
2023/05/02 08:48:09;;;;;;;0.53;0.53;;;10.00;99.90;;;;;;4954035;29;20275;-87
2023/05/02 08:50:47;;;;;;;0.30;0.30;;;10.30;99.90;;;;;;4952101;28;20319;-89
2023/05/02 08:53:13;;;;;;;0.40;0.40;;;10.40;99.90;;;;;;4937652;29;20796;-89
2023/05/02 08:55:40;;;;;;;1.00;1.00;;;10.30;99.90;;;;;;4953314;29;20400;-89
2023/05/02 08:58:08;;;;;;;0.50;0.50;;;10.20;99.90;;;;;;4970104;28;20705;-88
2023/05/02 09:00:41;;;;;;;0.50;0.50;;;10.30;99.90;;;;;;4969478;28;20641;-88
2023/05/02 09:03:35;;;;;;;0.50;0.40;;;10.60;99.90;;;;;;4919519;29;20705;-90
2023/05/02 09:06:28;;;;;;;0.80;0.80;;;10.90;99.90;;;;;;4939504;29;20217;-91
2023/05/02 09:08:59;;;;;;;0.70;0.70;;;10.60;99.90;;;;;;4937124;29;20637;-91
2023/05/02 09:11:25;;;;;;;0.23;0.23;;;10.40;99.90;;;;;;4955622;29;20225;-91
2023/05/02 09:13:51;;;;;;;0.40;0.40;;;10.70;99.90;;;;;;4938687;29;20582;-93
2023/05/02 09:16:25;;;;;;;1.30;1.23;;;10.70;99.90;;;;;;4971845;28;20275;-94
2023/05/02 09:18:58;;;;;;;0.10;0.10;;;10.70;99.90;;;;;;4956889;28;20280;-93
2023/05/02 09:21:26;;;;;;;0.23;0.23;;;11.60;99.90;;;;;;4956734;29;20189;-91
2023/05/02 09:23:57;;;;;;;2.10;0.33;;;12.40;99.90;;;;;;4954174;29;20736;-93
2023/05/02 09:26:31;;;;;;;4.23;0.93;;;12.30;99.90;;;;;;4954357;29;20256;-90
2023/05/02 09:29:00;;;;;;;0.70;0.70;;;12.90;99.90;;;;;;4954386;29;20344;-91
2023/05/02 09:31:33;;;;;;;0.40;0.40;;;13.00;99.90;;;;;;4956130;28;20320;-91
2023/05/02 09:34:17;;;;;;;3.10;0.60;;;13.60;99.90;;;;;;4953438;28;20263;-92
2023/05/02 09:36:46;;;;;;;0.20;0.20;;;13.90;99.90;;;;;;4954163;28;20196;-91
2023/05/02 09:39:17;;;;;;;2.43;0.43;;;13.20;99.90;;;;;;4954334;29;20197;-92
2023/05/02 09:41:45;;;;;;;0.33;0.33;;;13.30;99.90;;;;;;4951837;29;20231;-93
2023/05/02 09:44:13;;;;;;;0.60;0.60;;;13.20;99.90;;;;;;4953774;28;20221;-94
2023/05/02 09:46:40;;;;;;;6.80;0.57;;;12.00;99.90;;;;;;4938181;29;20229;-92
2023/05/02 09:49:09;;;;;;;0.40;0.40;;;11.50;99.90;;;;;;4969702;28;20264;-92
2023/05/02 09:51:37;;;;;;;0.30;0.30;;;11.00;99.90;;;;;;4953297;28;20228;-88
2023/05/02 09:54:03;;;;;;;2.53;0.63;;;10.80;99.90;;;;;;4937895;29;20653;-91
2023/05/02 09:56:29;;;;;;;3.23;1.10;;;10.50;99.90;;;;;;4938271;29;20248;-90
2023/05/02 09:59:14;;;;;;;0.90;0.90;;;10.50;99.90;;;;;;4943534;29;20703;-91
2023/05/02 10:01:41;;;;;;;2.43;1.90;;;10.30;99.90;;;;;;4952988;28;20233;-92
2023/05/02 10:04:17;;;;;;;1.90;0.60;;;10.20;99.90;;;;;;4956804;28;20220;-93
2023/05/02 10:06:44;;;;;;;0.80;0.80;;;10.50;99.90;;;;;;4942629;28;20189;-94
2023/05/02 10:09:11;;;;;;;0.40;0.40;;;10.80;99.90;;;;;;4941861;29;20201;-93
2023/05/02 10:11:44;;;;;;;0.33;0.33;;;10.20;99.90;;;;;;4956652;28;20585;-93
2023/05/02 10:14:11;;;;;;;0.50;0.50;;;10.10;99.90;;;;;;4956270;29;20225;-93
2023/05/02 10:17:03;;;;;;;0.30;0.30;;;9.90;99.90;;;;;;4940574;29;20221;-92
2023/05/02 10:19:49;;;;;;;0.40;0.40;;;10.50;99.90;;;;;;4922767;29;20221;-93
2023/05/02 10:22:23;;;;;;;0.40;0.40;;;11.80;99.90;;;;;;4956428;28;20604;-92
2023/05/02 10:24:50;;;;;;;1.60;0.60;;;11.60;99.90;;;;;;4972139;28;20292;-93
2023/05/02 10:27:16;;;;;;;0.57;0.57;;;11.60;99.90;;;;;;4940913;29;20769;-94
2023/05/02 10:29:43;;;;;;;0.30;0.30;;;11.90;99.90;;;;;;4955959;29;20225;-94
2023/05/02 10:32:10;;;;;;;0.30;0.30;;;11.90;99.90;;;;;;4973599;28;20232;-94
2023/05/02 10:34:37;;;;;;;0.40;0.40;;;12.50;99.90;;;;;;4955865;29;20256;-94
2023/05/02 10:37:03;;;;;;;0.20;0.20;;;12.60;99.90;;;;;;4940905;29;20229;-92
2023/05/02 10:39:31;;;;;;;1.53;0.70;;;12.70;99.90;;;;;;4956463;29;20196;-90
2023/05/02 10:42:00;;;;;;;0.70;0.70;;;13.10;99.90;;;;;;4972986;28;20229;-92
2023/05/02 10:44:39;;;;;;;0.50;0.50;;;13.50;99.90;;;;;;4942285;29;20894;-93
2023/05/02 10:47:22;;;;;;;0.80;0.53;;;12.10;99.90;;;;;;4940918;29;20266;-94
2023/05/02 10:49:54;;;;;;;0.40;0.40;;;10.50;99.90;;;;;;4958457;29;20368;-93
2023/05/02 10:52:35;;;;;;;0.23;0.23;;;10.30;99.90;;;;;;4957507;29;20221;-92
2023/05/02 10:55:18;;;;;;;0.40;0.40;;;10.10;99.90;;;;;;4955830;29;20213;-89
2023/05/02 10:57:58;;;;;;;0.40;0.40;;;9.90;99.90;;;;;;4956630;28;20225;-91
2023/05/02 11:00:26;;;;;;;1.03;0.53;;;10.50;99.90;;;;;;4976283;28;20211;-95
2023/05/02 11:02:52;;;;;;;0.87;0.40;;;10.90;99.90;;;;;;4972542;28;20221;-96
2023/05/02 11:05:18;;;;;;;0.47;0.40;;;12.00;99.90;;;;;;4940940;29;20209;-94
2023/05/02 11:07:44;;;;;;;0.53;0.53;;;12.50;99.90;;;;;;4955980;29;20225;-95
2023/05/02 11:10:15;;;;;;;0.40;0.40;;;12.70;99.90;;;;;;4939772;29;20351;-92
2023/05/02 11:12:45;;;;;;;0.30;0.30;;;12.90;99.90;;;;;;4955324;28;20220;-93
2023/05/02 11:15:11;;;;;;;0.33;0.33;;;13.40;99.90;;;;;;4955742;28;20197;-93
2023/05/02 11:18:06;;;;;;;5.20;0.60;;;12.70;99.90;;;;;;4939650;29;20213;-95
2023/05/02 11:20:33;;;;;;;0.40;0.40;;;13.40;99.90;;;;;;4938803;29;20280;-95
2023/05/02 11:23:24;;;;;;;0.20;0.20;;;12.60;99.90;;;;;;4941387;29;20649;-95
2023/05/02 11:25:55;;;;;;;0.60;0.60;;;11.50;99.90;;;;;;4957484;29;20240;-95
2023/05/02 11:28:33;;;;;;;0.80;0.80;;;11.40;99.90;;;;;;4957794;29;20758;-93
2023/05/02 11:31:29;;;;;;;2.67;0.80;;;11.20;99.90;;;;;;4958175;28;20323;-94
2023/05/02 11:33:56;;;;;;;0.10;0.10;;;11.60;99.90;;;;;;4947479;28;20221;-93
2023/05/02 11:36:32;;;;;;;0.30;0.30;;;12.00;99.90;;;;;;4961123;29;20193;-93
2023/05/02 11:38:59;;;;;;;0.43;0.43;;;11.60;99.90;;;;;;4959172;29;20253;-93
2023/05/02 11:41:42;;;;;;;0.20;0.20;;;11.10;99.90;;;;;;4957944;29;20236;-94
2023/05/02 11:44:08;;;;;;;0.33;0.33;;;10.70;99.90;;;;;;4973559;28;20233;-93
2023/05/02 11:46:38;;;;;;;0.40;0.40;;;10.50;99.90;;;;;;4940874;29;20213;-91
2023/05/02 11:49:05;;;;;;;0.53;0.53;;;10.60;99.90;;;;;;4956129;29;20235;-92
2023/05/02 11:51:31;;;;;;;0.40;0.40;;;10.40;99.90;;;;;;4956004;29;20208;-93
2023/05/02 11:53:56;;;;;;;0.43;0.43;;;10.50;99.90;;;;;;4955507;29;20221;-94
2023/05/02 11:56:23;;;;;;;0.87;0.53;;;10.40;99.90;;;;;;4938601;29;20221;-91
2023/05/02 11:58:59;;;;;;;7.90;0.30;;;10.40;99.90;;;;;;4970142;28;20563;-93
2023/05/02 12:01:26;;;;;;;0.40;0.40;;;10.50;99.90;;;;;;4955408;28;20221;-93
2023/05/02 12:04:06;;;;;;;0.10;0.10;;;10.60;99.90;;;;;;4939270;28;20880;-93
2023/05/02 12:06:32;;;;;;;0.63;0.63;;;10.80;99.90;;;;;;4955077;29;20274;-92
2023/05/02 12:09:10;;;;;;;0.40;0.40;;;10.40;99.90;;;;;;4954115;29;20319;-94
2023/05/02 12:11:37;;;;;;;0.30;0.30;;;10.70;99.90;;;;;;4940686;29;20213;-93
2023/05/02 12:14:04;;;;;;;0.30;0.30;;;11.00;99.90;;;;;;4942601;29;20232;-95
2023/05/02 12:16:30;;;;;;;0.20;0.20;;;11.10;99.90;;;;;;4955820;29;20221;-93
2023/05/02 12:18:58;;;;;;;0.97;0.30;;;11.00;99.90;;;;;;4940018;28;20221;-93
2023/05/02 12:21:25;;;;;;;0.43;0.43;;;10.80;99.90;;;;;;4942793;29;20213;-91
2023/05/02 12:23:52;;;;;;;0.30;0.30;;;10.70;99.90;;;;;;4925237;29;20225;-92
2023/05/02 12:26:24;;;;;;;1.03;0.40;;;10.60;99.90;;;;;;4956845;28;20249;-91
2023/05/02 12:28:54;;;;;;;0.43;0.43;;;10.70;99.90;;;;;;4957762;29;20700;-93
2023/05/02 12:31:20;;;;;;;0.30;0.30;;;10.90;99.90;;;;;;4940369;29;20233;-94
2023/05/02 12:33:47;;;;;;;0.43;0.43;;;10.80;99.90;;;;;;4970567;28;20198;-94
2023/05/02 12:36:13;;;;;;;4.00;0.60;;;10.70;99.90;;;;;;4970159;28;20273;-92
2023/05/02 12:38:39;;;;;;;0.10;0.10;;;10.60;99.90;;;;;;4938326;29;20311;-94
2023/05/02 12:41:05;;;;;;;0.20;0.20;;;10.50;99.90;;;;;;4954454;29;20292;-93
2023/05/02 12:43:59;;;;;;;0.30;0.30;;;10.20;99.90;;;;;;4955280;29;20271;-92
2023/05/02 12:46:27;;;;;;;0.30;0.30;;;10.20;99.90;;;;;;4937406;29;20248;-91
2023/05/02 12:49:10;;;;;;;0.87;0.63;;;10.20;99.90;;;;;;4942797;28;20194;-91
2023/05/02 12:51:38;;;;;;;0.40;0.40;;;10.20;99.90;;;;;;4960544;28;20292;-92
2023/05/02 12:54:04;;;;;;;0.50;0.50;;;10.60;99.90;;;;;;4954692;29;20201;-91
2023/05/02 12:56:37;;;;;;;0.20;0.20;;;11.20;99.90;;;;;;4953784;29;20260;-89
2023/05/02 12:59:04;;;;;;;0.30;0.30;;;11.60;99.90;;;;;;4950057;29;20233;-91
2023/05/02 13:01:32;;;;;;;2.07;0.60;;;11.60;99.90;;;;;;4956579;29;20667;-91
2023/05/02 13:03:58;;;;;;;0.90;0.90;;;11.50;99.90;;;;;;4951482;28;20240;-91
2023/05/02 13:06:26;;;;;;;0.30;0.30;;;11.60;99.90;;;;;;4951627;29;20562;-92
2023/05/02 13:08:52;;;;;;;0.40;0.40;;;11.50;99.90;;;;;;4934522;29;20229;-89
2023/05/02 13:11:19;;;;;;;0.40;0.40;;;11.50;99.90;;;;;;4954027;28;20282;-93
2023/05/02 13:13:45;;;;;;;2.53;0.60;;;11.80;99.90;;;;;;4938690;28;20783;-90
2023/05/02 13:16:11;;;;;;;0.60;0.60;;;11.40;99.90;;;;;;4936199;28;20229;-89
2023/05/02 13:18:40;;;;;;;2.90;0.40;;;11.10;99.90;;;;;;4948961;28;20185;-89
2023/05/02 13:21:06;;;;;;;0.27;0.27;;;11.20;99.90;;;;;;4935308;29;20194;-94
2023/05/02 13:23:32;;;;;;;2.73;0.70;;;11.80;99.90;;;;;;4947795;29;20232;-91
2023/05/02 13:25:58;;;;;;;2.63;0.43;;;12.10;99.90;;;;;;4949447;29;20597;-94
2023/05/02 13:28:24;;;;;;;0.33;0.33;;;11.90;99.90;;;;;;4928022;29;20232;-92
2023/05/02 13:30:50;;;;;;;0.30;0.30;;;11.30;99.90;;;;;;4931165;28;20217;-93
2023/05/02 13:33:16;;;;;;;0.70;0.40;;;11.00;99.90;;;;;;4933832;29;20208;-91
2023/05/02 13:35:42;;;;;;;0.47;0.47;;;10.90;99.90;;;;;;4934030;29;20229;-92
2023/05/02 13:38:08;;;;;;;0.30;0.30;;;10.70;99.90;;;;;;4945271;28;20213;-94
2023/05/02 13:40:34;;;;;;;0.33;0.30;;;10.80;99.90;;;;;;4945527;29;20648;-94
2023/05/02 13:42:59;;;;;;;0.10;0.10;;;10.80;99.90;;;;;;4916691;29;20229;-93
2023/05/02 13:45:25;;;;;;;0.30;0.30;;;10.90;99.90;;;;;;4934598;29;20181;-94
2023/05/02 13:47:54;;;;;;;0.70;0.70;;;10.60;99.90;;;;;;4966021;28;20292;-91
2023/05/02 13:50:22;;;;;;;0.40;0.40;;;10.60;99.90;;;;;;4934567;29;20240;-90